sensor_id;sensor_type;location;lat;lon;timestamp;temperature;humidity
64198;SHT31;50512;53.666;9.700;2023-07-08T00:00:38;15.15;84.96
64198;SHT31;50512;53.666;9.700;2023-07-08T00:03:05;15.15;84.20
64198;SHT31;50512;53.666;9.700;2023-07-08T00:05:32;14.83;84.80
64198;SHT31;50512;53.666;9.700;2023-07-08T00:07:58;14.50;86.41
64198;SHT31;50512;53.666;9.700;2023-07-08T00:10:27;14.63;86.40
64198;SHT31;50512;53.666;9.700;2023-07-08T00:12:55;14.74;86.19
64198;SHT31;50512;53.666;9.700;2023-07-08T00:15:25;14.74;85.28
64198;SHT31;50512;53.666;9.700;2023-07-08T00:17:53;14.87;86.61
64198;SHT31;50512;53.666;9.700;2023-07-08T00:20:23;14.98;86.08
64198;SHT31;50512;53.666;9.700;2023-07-08T00:22:54;15.05;85.74
64198;SHT31;50512;53.666;9.700;2023-07-08T00:25:20;14.73;85.23
64198;SHT31;50512;53.666;9.700;2023-07-08T00:27:48;14.62;85.59
64198;SHT31;50512;53.666;9.700;2023-07-08T00:30:19;14.56;86.89
64198;SHT31;50512;53.666;9.700;2023-07-08T00:32:48;14.65;86.87
64198;SHT31;50512;53.666;9.700;2023-07-08T00:35:20;14.59;85.81
64198;SHT31;50512;53.666;9.700;2023-07-08T00:37:47;14.46;86.51
64198;SHT31;50512;53.666;9.700;2023-07-08T00:40:22;14.59;86.72
64198;SHT31;50512;53.666;9.700;2023-07-08T00:42:51;14.53;86.41
64198;SHT31;50512;53.666;9.700;2023-07-08T00:45:37;14.53;85.38
64198;SHT31;50512;53.666;9.700;2023-07-08T00:48:11;14.50;86.44
64198;SHT31;50512;53.666;9.700;2023-07-08T00:50:38;14.42;86.35
64198;SHT31;50512;53.666;9.700;2023-07-08T00:53:24;14.40;86.54
64198;SHT31;50512;53.666;9.700;2023-07-08T00:55:52;14.45;87.70
64198;SHT31;50512;53.666;9.700;2023-07-08T00:58:21;14.52;87.66
64198;SHT31;50512;53.666;9.700;2023-07-08T01:00:49;14.35;88.02
64198;SHT31;50512;53.666;9.700;2023-07-08T01:03:18;14.42;87.56
64198;SHT31;50512;53.666;9.700;2023-07-08T01:05:46;14.40;87.64
64198;SHT31;50512;53.666;9.700;2023-07-08T01:08:13;14.48;87.66
64198;SHT31;50512;53.666;9.700;2023-07-08T01:10:45;14.46;88.06
64198;SHT31;50512;53.666;9.700;2023-07-08T01:13:14;14.36;87.98
64198;SHT31;50512;53.666;9.700;2023-07-08T01:15:43;14.29;87.68
64198;SHT31;50512;53.666;9.700;2023-07-08T01:18:14;14.28;88.18
64198;SHT31;50512;53.666;9.700;2023-07-08T01:20:43;14.25;88.76
64198;SHT31;50512;53.666;9.700;2023-07-08T01:23:14;13.91;88.26
64198;SHT31;50512;53.666;9.700;2023-07-08T01:25:41;13.87;89.50
64198;SHT31;50512;53.666;9.700;2023-07-08T01:28:09;13.71;88.85
64198;SHT31;50512;53.666;9.700;2023-07-08T01:30:36;13.63;89.39
64198;SHT31;50512;53.666;9.700;2023-07-08T01:33:05;13.74;90.47
64198;SHT31;50512;53.666;9.700;2023-07-08T01:35:34;13.80;89.70
64198;SHT31;50512;53.666;9.700;2023-07-08T01:38:03;13.90;90.20
64198;SHT31;50512;53.666;9.700;2023-07-08T01:40:34;13.97;90.15
64198;SHT31;50512;53.666;9.700;2023-07-08T01:43:03;14.02;89.47
64198;SHT31;50512;53.666;9.700;2023-07-08T01:45:33;14.08;89.43
64198;SHT31;50512;53.666;9.700;2023-07-08T01:48:03;14.00;88.53
64198;SHT31;50512;53.666;9.700;2023-07-08T01:50:32;13.87;88.91
64198;SHT31;50512;53.666;9.700;2023-07-08T01:53:00;13.84;88.49
64198;SHT31;50512;53.666;9.700;2023-07-08T01:55:27;13.93;89.99
64198;SHT31;50512;53.666;9.700;2023-07-08T01:57:56;13.97;90.35
64198;SHT31;50512;53.666;9.700;2023-07-08T02:00:23;13.98;89.10
64198;SHT31;50512;53.666;9.700;2023-07-08T02:02:50;13.76;88.72
64198;SHT31;50512;53.666;9.700;2023-07-08T02:05:17;13.81;90.34
64198;SHT31;50512;53.666;9.700;2023-07-08T02:07:43;13.69;89.98
64198;SHT31;50512;53.666;9.700;2023-07-08T02:10:10;13.52;89.53
64198;SHT31;50512;53.666;9.700;2023-07-08T02:12:36;13.40;91.02
64198;SHT31;50512;53.666;9.700;2023-07-08T02:15:05;13.40;90.54
64198;SHT31;50512;53.666;9.700;2023-07-08T02:17:32;13.36;90.93
64198;SHT31;50512;53.666;9.700;2023-07-08T02:19:59;13.52;91.99
64198;SHT31;50512;53.666;9.700;2023-07-08T02:22:25;13.65;91.28
64198;SHT31;50512;53.666;9.700;2023-07-08T02:24:52;13.67;90.48
64198;SHT31;50512;53.666;9.700;2023-07-08T02:27:18;13.73;90.69
64198;SHT31;50512;53.666;9.700;2023-07-08T02:29:45;13.70;90.84
64198;SHT31;50512;53.666;9.700;2023-07-08T02:32:13;13.60;89.84
64198;SHT31;50512;53.666;9.700;2023-07-08T02:34:39;13.56;90.71
64198;SHT31;50512;53.666;9.700;2023-07-08T02:37:06;13.63;91.81
64198;SHT31;50512;53.666;9.700;2023-07-08T02:39:33;13.63;91.45
64198;SHT31;50512;53.666;9.700;2023-07-08T02:41:59;13.26;91.38
64198;SHT31;50512;53.666;9.700;2023-07-08T02:44:27;13.28;92.56
64198;SHT31;50512;53.666;9.700;2023-07-08T02:46:53;13.36;92.37
64198;SHT31;50512;53.666;9.700;2023-07-08T02:49:21;13.34;90.61
64198;SHT31;50512;53.666;9.700;2023-07-08T02:51:48;13.21;90.88
64198;SHT31;50512;53.666;9.700;2023-07-08T02:54:14;13.35;92.02
64198;SHT31;50512;53.666;9.700;2023-07-08T02:56:41;13.42;90.95
64198;SHT31;50512;53.666;9.700;2023-07-08T02:59:07;13.49;91.00
64198;SHT31;50512;53.666;9.700;2023-07-08T03:01:33;13.55;91.27
64198;SHT31;50512;53.666;9.700;2023-07-08T03:04:06;13.52;90.94
64198;SHT31;50512;53.666;9.700;2023-07-08T03:06:39;13.47;90.98
64198;SHT31;50512;53.666;9.700;2023-07-08T03:09:06;13.25;90.11
64198;SHT31;50512;53.666;9.700;2023-07-08T03:11:33;13.25;90.88
64198;SHT31;50512;53.666;9.700;2023-07-08T03:13:59;13.23;90.74
64198;SHT31;50512;53.666;9.700;2023-07-08T03:16:25;13.38;91.40
64198;SHT31;50512;53.666;9.700;2023-07-08T03:18:58;13.38;91.17
64198;SHT31;50512;53.666;9.700;2023-07-08T03:21:25;13.19;89.67
64198;SHT31;50512;53.666;9.700;2023-07-08T03:23:52;13.12;90.66
64198;SHT31;50512;53.666;9.700;2023-07-08T03:26:21;13.14;90.08
64198;SHT31;50512;53.666;9.700;2023-07-08T03:28:48;13.12;90.72
64198;SHT31;50512;53.666;9.700;2023-07-08T03:31:15;13.23;91.20
64198;SHT31;50512;53.666;9.700;2023-07-08T03:33:42;12.94;91.27
64198;SHT31;50512;53.666;9.700;2023-07-08T03:36:11;12.92;92.14
64198;SHT31;50512;53.666;9.700;2023-07-08T03:38:38;13.00;91.67
64198;SHT31;50512;53.666;9.700;2023-07-08T03:41:06;13.12;91.51
64198;SHT31;50512;53.666;9.700;2023-07-08T03:43:33;13.08;90.45
64198;SHT31;50512;53.666;9.700;2023-07-08T03:45:59;13.14;90.32
64198;SHT31;50512;53.666;9.700;2023-07-08T03:48:25;13.11;90.81
64198;SHT31;50512;53.666;9.700;2023-07-08T03:50:52;13.25;91.09
64198;SHT31;50512;53.666;9.700;2023-07-08T03:53:18;13.39;91.35
64198;SHT31;50512;53.666;9.700;2023-07-08T03:55:45;13.40;90.83
64198;SHT31;50512;53.666;9.700;2023-07-08T03:58:13;13.57;89.74
64198;SHT31;50512;53.666;9.700;2023-07-08T04:00:39;13.69;89.46
64198;SHT31;50512;53.666;9.700;2023-07-08T04:03:06;13.67;88.92
64198;SHT31;50512;53.666;9.700;2023-07-08T04:05:33;13.74;88.14
64198;SHT31;50512;53.666;9.700;2023-07-08T04:08:00;13.90;87.92
64198;SHT31;50512;53.666;9.700;2023-07-08T04:10:26;13.87;88.27
64198;SHT31;50512;53.666;9.700;2023-07-08T04:12:53;14.01;88.25
64198;SHT31;50512;53.666;9.700;2023-07-08T04:15:20;14.00;87.93
64198;SHT31;50512;53.666;9.700;2023-07-08T04:17:50;13.98;88.34
64198;SHT31;50512;53.666;9.700;2023-07-08T04:20:19;14.12;87.44
64198;SHT31;50512;53.666;9.700;2023-07-08T04:22:46;14.25;87.67
64198;SHT31;50512;53.666;9.700;2023-07-08T04:25:13;14.31;87.42
64198;SHT31;50512;53.666;9.700;2023-07-08T04:27:40;14.36;87.43
64198;SHT31;50512;53.666;9.700;2023-07-08T04:30:09;14.52;86.48
64198;SHT31;50512;53.666;9.700;2023-07-08T04:32:42;14.57;86.53
64198;SHT31;50512;53.666;9.700;2023-07-08T04:35:08;14.65;86.53
64198;SHT31;50512;53.666;9.700;2023-07-08T04:37:35;14.73;85.94
64198;SHT31;50512;53.666;9.700;2023-07-08T04:40:03;14.80;86.03
64198;SHT31;50512;53.666;9.700;2023-07-08T04:42:30;14.88;85.37
64198;SHT31;50512;53.666;9.700;2023-07-08T04:44:56;14.97;84.84
64198;SHT31;50512;53.666;9.700;2023-07-08T04:47:23;15.10;84.80
64198;SHT31;50512;53.666;9.700;2023-07-08T04:49:51;15.15;84.55
64198;SHT31;50512;53.666;9.700;2023-07-08T04:52:17;15.21;85.12
64198;SHT31;50512;53.666;9.700;2023-07-08T04:54:43;15.29;84.20
64198;SHT31;50512;53.666;9.700;2023-07-08T04:57:10;15.38;84.49
64198;SHT31;50512;53.666;9.700;2023-07-08T04:59:37;15.53;83.24
64198;SHT31;50512;53.666;9.700;2023-07-08T05:02:03;15.63;83.68
64198;SHT31;50512;53.666;9.700;2023-07-08T05:04:30;15.71;83.19
64198;SHT31;50512;53.666;9.700;2023-07-08T05:06:57;15.86;82.59
64198;SHT31;50512;53.666;9.700;2023-07-08T05:09:24;15.96;82.29
64198;SHT31;50512;53.666;9.700;2023-07-08T05:11:51;16.08;81.76
64198;SHT31;50512;53.666;9.700;2023-07-08T05:14:18;16.28;80.75
64198;SHT31;50512;53.666;9.700;2023-07-08T05:16:44;16.47;80.42
64198;SHT31;50512;53.666;9.700;2023-07-08T05:19:11;16.56;80.07
64198;SHT31;50512;53.666;9.700;2023-07-08T05:21:37;16.63;80.13
64198;SHT31;50512;53.666;9.700;2023-07-08T05:24:06;16.76;80.07
64198;SHT31;50512;53.666;9.700;2023-07-08T05:26:33;16.87;79.27
64198;SHT31;50512;53.666;9.700;2023-07-08T05:29:00;17.03;79.34
64198;SHT31;50512;53.666;9.700;2023-07-08T05:31:26;17.21;78.28
64198;SHT31;50512;53.666;9.700;2023-07-08T05:33:53;17.35;77.93
64198;SHT31;50512;53.666;9.700;2023-07-08T05:36:19;17.56;77.93
64198;SHT31;50512;53.666;9.700;2023-07-08T05:38:46;17.68;77.43
64198;SHT31;50512;53.666;9.700;2023-07-08T05:41:14;17.87;76.09
64198;SHT31;50512;53.666;9.700;2023-07-08T05:43:40;18.03;75.47
64198;SHT31;50512;53.666;9.700;2023-07-08T05:46:07;18.25;74.75
64198;SHT31;50512;53.666;9.700;2023-07-08T05:48:34;18.51;75.02
64198;SHT31;50512;53.666;9.700;2023-07-08T05:51:00;18.70;73.71
64198;SHT31;50512;53.666;9.700;2023-07-08T05:53:26;18.90;73.08
64198;SHT31;50512;53.666;9.700;2023-07-08T05:55:53;18.93;72.67
64198;SHT31;50512;53.666;9.700;2023-07-08T05:58:21;19.25;71.44
64198;SHT31;50512;53.666;9.700;2023-07-08T06:00:54;19.45;71.77
64198;SHT31;50512;53.666;9.700;2023-07-08T06:03:22;19.63;70.54
64198;SHT31;50512;53.666;9.700;2023-07-08T06:05:48;19.86;70.03
64198;SHT31;50512;53.666;9.700;2023-07-08T06:08:15;19.92;69.17
64198;SHT31;50512;53.666;9.700;2023-07-08T06:10:42;20.01;68.54
64198;SHT31;50512;53.666;9.700;2023-07-08T06:13:09;20.00;67.54
64198;SHT31;50512;53.666;9.700;2023-07-08T06:15:37;20.20;68.39
64198;SHT31;50512;53.666;9.700;2023-07-08T06:18:03;20.18;68.73
64198;SHT31;50512;53.666;9.700;2023-07-08T06:20:29;20.23;67.33
64198;SHT31;50512;53.666;9.700;2023-07-08T06:22:56;20.35;66.53
64198;SHT31;50512;53.666;9.700;2023-07-08T06:25:23;20.51;67.29
64198;SHT31;50512;53.666;9.700;2023-07-08T06:27:49;20.41;67.55
64198;SHT31;50512;53.666;9.700;2023-07-08T06:30:16;20.45;67.02
64198;SHT31;50512;53.666;9.700;2023-07-08T06:32:43;20.48;66.96
64198;SHT31;50512;53.666;9.700;2023-07-08T06:35:10;20.48;68.55
64198;SHT31;50512;53.666;9.700;2023-07-08T06:37:36;20.49;68.08
64198;SHT31;50512;53.666;9.700;2023-07-08T06:40:03;20.61;67.37
64198;SHT31;50512;53.666;9.700;2023-07-08T06:42:30;20.64;66.88
64198;SHT31;50512;53.666;9.700;2023-07-08T06:44:57;20.72;67.88
64198;SHT31;50512;53.666;9.700;2023-07-08T06:47:23;20.96;66.68
64198;SHT31;50512;53.666;9.700;2023-07-08T06:49:51;21.10;65.67
64198;SHT31;50512;53.666;9.700;2023-07-08T06:52:17;21.14;66.53
64198;SHT31;50512;53.666;9.700;2023-07-08T06:54:44;21.43;65.36
64198;SHT31;50512;53.666;9.700;2023-07-08T06:57:10;21.50;64.57
64198;SHT31;50512;53.666;9.700;2023-07-08T06:59:37;21.51;64.82
64198;SHT31;50512;53.666;9.700;2023-07-08T07:02:03;21.69;64.54
64198;SHT31;50512;53.666;9.700;2023-07-08T07:04:30;21.90;65.27
64198;SHT31;50512;53.666;9.700;2023-07-08T07:06:59;21.99;64.68
64198;SHT31;50512;53.666;9.700;2023-07-08T07:09:25;21.86;64.68
64198;SHT31;50512;53.666;9.700;2023-07-08T07:11:51;22.03;62.40
64198;SHT31;50512;53.666;9.700;2023-07-08T07:14:19;22.26;64.34
64198;SHT31;50512;53.666;9.700;2023-07-08T07:16:45;22.40;62.40
64198;SHT31;50512;53.666;9.700;2023-07-08T07:19:12;22.55;63.75
64198;SHT31;50512;53.666;9.700;2023-07-08T07:21:38;22.51;63.06
64198;SHT31;50512;53.666;9.700;2023-07-08T07:24:06;22.84;63.99
64198;SHT31;50512;53.666;9.700;2023-07-08T07:26:33;23.08;61.76
64198;SHT31;50512;53.666;9.700;2023-07-08T07:29:01;23.17;61.33
64198;SHT31;50512;53.666;9.700;2023-07-08T07:31:28;23.10;60.54
64198;SHT31;50512;53.666;9.700;2023-07-08T07:33:54;23.29;60.45
64198;SHT31;50512;53.666;9.700;2023-07-08T07:36:21;23.71;60.12
64198;SHT31;50512;53.666;9.700;2023-07-08T07:38:47;23.72;57.74
64198;SHT31;50512;53.666;9.700;2023-07-08T07:41:15;24.54;56.98
64198;SHT31;50512;53.666;9.700;2023-07-08T07:43:41;24.99;54.58
64198;SHT31;50512;53.666;9.700;2023-07-08T07:46:08;24.95;54.66
64198;SHT31;50512;53.666;9.700;2023-07-08T07:48:35;25.19;54.18
64198;SHT31;50512;53.666;9.700;2023-07-08T07:51:02;25.73;54.28
64198;SHT31;50512;53.666;9.700;2023-07-08T07:53:29;25.54;53.53
64198;SHT31;50512;53.666;9.700;2023-07-08T07:55:56;25.69;52.38
64198;SHT31;50512;53.666;9.700;2023-07-08T07:58:24;26.15;53.77
64198;SHT31;50512;53.666;9.700;2023-07-08T08:00:51;26.47;51.49
64198;SHT31;50512;53.666;9.700;2023-07-08T08:03:17;26.11;52.95
64198;SHT31;50512;53.666;9.700;2023-07-08T08:05:44;26.19;51.18
64198;SHT31;50512;53.666;9.700;2023-07-08T08:08:10;26.47;51.14
64198;SHT31;50512;53.666;9.700;2023-07-08T08:10:37;26.33;51.13
64198;SHT31;50512;53.666;9.700;2023-07-08T08:13:03;26.31;51.13
64198;SHT31;50512;53.666;9.700;2023-07-08T08:15:31;26.17;51.70
64198;SHT31;50512;53.666;9.700;2023-07-08T08:17:58;26.95;48.92
64198;SHT31;50512;53.666;9.700;2023-07-08T08:20:25;26.56;48.37
64198;SHT31;50512;53.666;9.700;2023-07-08T08:22:52;26.90;49.26
64198;SHT31;50512;53.666;9.700;2023-07-08T08:25:21;27.31;50.19
64198;SHT31;50512;53.666;9.700;2023-07-08T08:27:48;26.77;49.74
64198;SHT31;50512;53.666;9.700;2023-07-08T08:30:15;26.86;49.26
64198;SHT31;50512;53.666;9.700;2023-07-08T08:32:43;26.79;50.02
64198;SHT31;50512;53.666;9.700;2023-07-08T08:35:09;26.66;49.48
64198;SHT31;50512;53.666;9.700;2023-07-08T08:37:36;27.46;48.15
64198;SHT31;50512;53.666;9.700;2023-07-08T08:40:02;27.74;48.25
64198;SHT31;50512;53.666;9.700;2023-07-08T08:42:33;27.98;49.49
64198;SHT31;50512;53.666;9.700;2023-07-08T08:45:02;28.41;49.05
64198;SHT31;50512;53.666;9.700;2023-07-08T08:47:35;27.38;50.17
64198;SHT31;50512;53.666;9.700;2023-07-08T08:50:24;27.80;49.91
64198;SHT31;50512;53.666;9.700;2023-07-08T08:52:53;27.42;51.41
64198;SHT31;50512;53.666;9.700;2023-07-08T08:55:21;27.02;50.43
64198;SHT31;50512;53.666;9.700;2023-07-08T08:57:53;26.88;50.01
64198;SHT31;50512;53.666;9.700;2023-07-08T09:00:25;26.42;50.56
64198;SHT31;50512;53.666;9.700;2023-07-08T09:03:00;26.86;53.25
64198;SHT31;50512;53.666;9.700;2023-07-08T09:05:29;27.28;50.42
64198;SHT31;50512;53.666;9.700;2023-07-08T09:08:04;27.52;50.03
64198;SHT31;50512;53.666;9.700;2023-07-08T09:10:42;27.22;50.44
64198;SHT31;50512;53.666;9.700;2023-07-08T09:13:14;27.01;50.76
64198;SHT31;50512;53.666;9.700;2023-07-08T09:15:42;26.98;49.08
64198;SHT31;50512;53.666;9.700;2023-07-08T09:18:17;27.05;49.90
64198;SHT31;50512;53.666;9.700;2023-07-08T09:20:46;27.15;50.02
64198;SHT31;50512;53.666;9.700;2023-07-08T09:23:18;26.98;49.17
64198;SHT31;50512;53.666;9.700;2023-07-08T09:25:49;26.90;49.77
64198;SHT31;50512;53.666;9.700;2023-07-08T09:28:17;27.39;49.02
64198;SHT31;50512;53.666;9.700;2023-07-08T09:30:46;27.50;49.87
64198;SHT31;50512;53.666;9.700;2023-07-08T09:33:14;26.90;50.72
64198;SHT31;50512;53.666;9.700;2023-07-08T09:35:42;27.70;49.83
64198;SHT31;50512;53.666;9.700;2023-07-08T09:38:14;27.42;50.51
64198;SHT31;50512;53.666;9.700;2023-07-08T09:40:46;27.22;49.90
64198;SHT31;50512;53.666;9.700;2023-07-08T09:43:18;27.35;49.64
64198;SHT31;50512;53.666;9.700;2023-07-08T09:45:47;26.88;50.61
64198;SHT31;50512;53.666;9.700;2023-07-08T09:48:27;27.22;49.81
64198;SHT31;50512;53.666;9.700;2023-07-08T09:50:56;27.00;50.55
64198;SHT31;50512;53.666;9.700;2023-07-08T09:53:24;26.83;49.74
64198;SHT31;50512;53.666;9.700;2023-07-08T09:55:52;27.37;50.23
64198;SHT31;50512;53.666;9.700;2023-07-08T09:58:23;27.00;50.74
64198;SHT31;50512;53.666;9.700;2023-07-08T10:00:53;27.48;49.88
64198;SHT31;50512;53.666;9.700;2023-07-08T10:03:22;27.42;47.95
64198;SHT31;50512;53.666;9.700;2023-07-08T10:05:51;27.60;49.10
64198;SHT31;50512;53.666;9.700;2023-07-08T10:08:23;27.56;49.08
64198;SHT31;50512;53.666;9.700;2023-07-08T10:10:57;27.84;48.72
64198;SHT31;50512;53.666;9.700;2023-07-08T10:13:26;28.08;49.94
64198;SHT31;50512;53.666;9.700;2023-07-08T10:16:10;28.46;49.19
64198;SHT31;50512;53.666;9.700;2023-07-08T10:18:38;27.96;47.22
64198;SHT31;50512;53.666;9.700;2023-07-08T10:21:08;28.07;48.12
64198;SHT31;50512;53.666;9.700;2023-07-08T10:23:43;27.90;46.86
64198;SHT31;50512;53.666;9.700;2023-07-08T10:26:23;27.34;47.89
64198;SHT31;50512;53.666;9.700;2023-07-08T10:29:00;27.60;47.14
64198;SHT31;50512;53.666;9.700;2023-07-08T10:31:44;27.48;47.40
64198;SHT31;50512;53.666;9.700;2023-07-08T10:34:24;27.80;47.91
64198;SHT31;50512;53.666;9.700;2023-07-08T10:37:01;27.50;46.95
64198;SHT31;50512;53.666;9.700;2023-07-08T10:39:50;27.60;48.82
64198;SHT31;50512;53.666;9.700;2023-07-08T10:42:40;27.82;49.53
64198;SHT31;50512;53.666;9.700;2023-07-08T10:45:12;28.35;48.81
64198;SHT31;50512;53.666;9.700;2023-07-08T10:47:59;28.44;46.21
64198;SHT31;50512;53.666;9.700;2023-07-08T10:50:44;28.25;47.18
64198;SHT31;50512;53.666;9.700;2023-07-08T10:53:35;28.07;47.44
64198;SHT31;50512;53.666;9.700;2023-07-08T10:56:07;28.25;49.40
64198;SHT31;50512;53.666;9.700;2023-07-08T11:01:33;28.04;47.10
64198;SHT31;50512;53.666;9.700;2023-07-08T11:06:56;28.31;47.75
64198;SHT31;50512;53.666;9.700;2023-07-08T11:09:27;28.56;47.10
64198;SHT31;50512;53.666;9.700;2023-07-08T11:11:58;28.56;47.22
64198;SHT31;50512;53.666;9.700;2023-07-08T11:14:30;28.70;46.06
64198;SHT31;50512;53.666;9.700;2023-07-08T11:17:09;28.80;47.66
64198;SHT31;50512;53.666;9.700;2023-07-08T11:19:45;28.56;44.90
64198;SHT31;50512;53.666;9.700;2023-07-08T11:22:14;28.69;45.68
64198;SHT31;50512;53.666;9.700;2023-07-08T11:24:46;28.70;47.40
64198;SHT31;50512;53.666;9.700;2023-07-08T11:27:16;28.70;46.74
64198;SHT31;50512;53.666;9.700;2023-07-08T11:29:51;28.97;45.48
64198;SHT31;50512;53.666;9.700;2023-07-08T11:32:22;28.56;45.42
64198;SHT31;50512;53.666;9.700;2023-07-08T11:34:50;28.83;45.02
64198;SHT31;50512;53.666;9.700;2023-07-08T11:37:18;28.58;45.32
64198;SHT31;50512;53.666;9.700;2023-07-08T11:39:53;28.73;44.40
64198;SHT31;50512;53.666;9.700;2023-07-08T11:42:23;28.87;44.61
64198;SHT31;50512;53.666;9.700;2023-07-08T11:44:53;28.96;44.57
64198;SHT31;50512;53.666;9.700;2023-07-08T11:47:26;28.73;45.70
64198;SHT31;50512;53.666;9.700;2023-07-08T11:49:57;29.00;43.55
64198;SHT31;50512;53.666;9.700;2023-07-08T11:52:24;28.83;46.06
64198;SHT31;50512;53.666;9.700;2023-07-08T11:54:57;28.60;42.99
64198;SHT31;50512;53.666;9.700;2023-07-08T11:57:28;28.79;46.04
64198;SHT31;50512;53.666;9.700;2023-07-08T12:00:17;29.07;44.66
64198;SHT31;50512;53.666;9.700;2023-07-08T12:02:49;29.00;43.65
64198;SHT31;50512;53.666;9.700;2023-07-08T12:05:16;28.87;45.90
64198;SHT31;50512;53.666;9.700;2023-07-08T12:07:45;29.45;45.03
64198;SHT31;50512;53.666;9.700;2023-07-08T12:10:16;29.27;41.76
64198;SHT31;50512;53.666;9.700;2023-07-08T12:12:45;29.04;43.55
64198;SHT31;50512;53.666;9.700;2023-07-08T12:15:16;29.38;46.28
64198;SHT31;50512;53.666;9.700;2023-07-08T12:17:43;29.66;43.58
64198;SHT31;50512;53.666;9.700;2023-07-08T12:20:18;29.24;41.90
64198;SHT31;50512;53.666;9.700;2023-07-08T12:22:44;29.37;42.61
64198;SHT31;50512;53.666;9.700;2023-07-08T12:25:13;29.52;43.07
64198;SHT31;50512;53.666;9.700;2023-07-08T12:27:41;29.55;43.63
64198;SHT31;50512;53.666;9.700;2023-07-08T12:30:09;29.18;41.03
64198;SHT31;50512;53.666;9.700;2023-07-08T12:32:37;29.10;40.22
64198;SHT31;50512;53.666;9.700;2023-07-08T12:35:05;29.34;41.11
64198;SHT31;50512;53.666;9.700;2023-07-08T12:37:35;29.28;41.24
64198;SHT31;50512;53.666;9.700;2023-07-08T12:40:01;29.42;42.07
64198;SHT31;50512;53.666;9.700;2023-07-08T12:42:31;29.10;42.93
64198;SHT31;50512;53.666;9.700;2023-07-08T12:44:58;28.96;43.61
64198;SHT31;50512;53.666;9.700;2023-07-08T12:47:24;29.21;42.72
64198;SHT31;50512;53.666;9.700;2023-07-08T12:49:52;29.44;42.70
64198;SHT31;50512;53.666;9.700;2023-07-08T12:52:21;29.75;44.13
64198;SHT31;50512;53.666;9.700;2023-07-08T12:54:47;29.79;40.28
64198;SHT31;50512;53.666;9.700;2023-07-08T12:57:14;29.72;40.72
64198;SHT31;50512;53.666;9.700;2023-07-08T12:59:41;29.70;40.60
64198;SHT31;50512;53.666;9.700;2023-07-08T13:02:14;29.79;40.93
64198;SHT31;50512;53.666;9.700;2023-07-08T13:04:41;29.61;41.72
64198;SHT31;50512;53.666;9.700;2023-07-08T13:07:22;29.44;39.82
64198;SHT31;50512;53.666;9.700;2023-07-08T13:09:50;29.42;40.09
64198;SHT31;50512;53.666;9.700;2023-07-08T13:12:20;29.49;39.46
64198;SHT31;50512;53.666;9.700;2023-07-08T13:14:48;29.66;40.37
64198;SHT31;50512;53.666;9.700;2023-07-08T13:17:15;29.06;39.58
64198;SHT31;50512;53.666;9.700;2023-07-08T13:19:43;29.41;41.23
64198;SHT31;50512;53.666;9.700;2023-07-08T13:22:15;29.63;40.65
64198;SHT31;50512;53.666;9.700;2023-07-08T13:24:43;29.94;40.74
64198;SHT31;50512;53.666;9.700;2023-07-08T13:27:14;29.77;38.34
64198;SHT31;50512;53.666;9.700;2023-07-08T13:29:42;29.83;39.50
64198;SHT31;50512;53.666;9.700;2023-07-08T13:32:10;29.83;41.39
64198;SHT31;50512;53.666;9.700;2023-07-08T13:34:37;29.67;40.30
64198;SHT31;50512;53.666;9.700;2023-07-08T13:37:10;29.90;40.39
64198;SHT31;50512;53.666;9.700;2023-07-08T13:39:38;30.17;41.45
64198;SHT31;50512;53.666;9.700;2023-07-08T13:42:06;29.82;41.41
64198;SHT31;50512;53.666;9.700;2023-07-08T13:44:33;30.11;38.93
64198;SHT31;50512;53.666;9.700;2023-07-08T13:47:00;30.14;40.42
64198;SHT31;50512;53.666;9.700;2023-07-08T13:49:30;30.23;39.55
64198;SHT31;50512;53.666;9.700;2023-07-08T13:52:08;30.13;41.11
64198;SHT31;50512;53.666;9.700;2023-07-08T13:54:41;30.31;40.89
64198;SHT31;50512;53.666;9.700;2023-07-08T13:57:10;30.16;41.36
64198;SHT31;50512;53.666;9.700;2023-07-08T13:59:37;30.06;40.37
64198;SHT31;50512;53.666;9.700;2023-07-08T14:02:14;29.99;41.58
64198;SHT31;50512;53.666;9.700;2023-07-08T14:04:41;29.93;41.05
64198;SHT31;50512;53.666;9.700;2023-07-08T14:07:12;30.20;40.19
64198;SHT31;50512;53.666;9.700;2023-07-08T14:09:41;30.28;40.60
64198;SHT31;50512;53.666;9.700;2023-07-08T14:12:08;30.25;38.71
64198;SHT31;50512;53.666;9.700;2023-07-08T14:14:34;29.73;39.38
64198;SHT31;50512;53.666;9.700;2023-07-08T14:17:01;29.70;39.55
64198;SHT31;50512;53.666;9.700;2023-07-08T14:19:30;29.70;39.15
64198;SHT31;50512;53.666;9.700;2023-07-08T14:21:59;29.56;37.74
64198;SHT31;50512;53.666;9.700;2023-07-08T14:24:26;29.69;40.21
64198;SHT31;50512;53.666;9.700;2023-07-08T14:26:54;29.92;40.58
64198;SHT31;50512;53.666;9.700;2023-07-08T14:29:20;30.14;39.55
64198;SHT31;50512;53.666;9.700;2023-07-08T14:31:47;30.21;40.42
64198;SHT31;50512;53.666;9.700;2023-07-08T14:34:17;30.10;39.80
64198;SHT31;50512;53.666;9.700;2023-07-08T14:36:46;30.37;40.69
64198;SHT31;50512;53.666;9.700;2023-07-08T14:39:14;30.45;39.99
64198;SHT31;50512;53.666;9.700;2023-07-08T14:41:42;30.37;38.64
64198;SHT31;50512;53.666;9.700;2023-07-08T14:44:20;30.28;39.22
64198;SHT31;50512;53.666;9.700;2023-07-08T14:46:46;30.13;38.63
64198;SHT31;50512;53.666;9.700;2023-07-08T14:49:15;30.18;40.53
64198;SHT31;50512;53.666;9.700;2023-07-08T14:51:42;30.31;38.79
64198;SHT31;50512;53.666;9.700;2023-07-08T14:54:08;30.28;38.93
64198;SHT31;50512;53.666;9.700;2023-07-08T14:56:35;30.14;41.19
64198;SHT31;50512;53.666;9.700;2023-07-08T14:59:01;30.28;39.72
64198;SHT31;50512;53.666;9.700;2023-07-08T15:01:30;30.31;40.01
64198;SHT31;50512;53.666;9.700;2023-07-08T15:03:56;30.38;39.01
64198;SHT31;50512;53.666;9.700;2023-07-08T15:06:23;30.34;39.44
64198;SHT31;50512;53.666;9.700;2023-07-08T15:08:50;30.45;39.06
64198;SHT31;50512;53.666;9.700;2023-07-08T15:11:17;30.40;39.58
64198;SHT31;50512;53.666;9.700;2023-07-08T15:13:44;30.42;38.89
64198;SHT31;50512;53.666;9.700;2023-07-08T15:16:12;30.11;39.88
64198;SHT31;50512;53.666;9.700;2023-07-08T15:18:41;30.34;39.27
64198;SHT31;50512;53.666;9.700;2023-07-08T15:21:10;30.47;40.76
64198;SHT31;50512;53.666;9.700;2023-07-08T15:23:37;30.25;37.87
64198;SHT31;50512;53.666;9.700;2023-07-08T15:26:03;30.09;39.88
64198;SHT31;50512;53.666;9.700;2023-07-08T15:28:41;30.30;40.92
64198;SHT31;50512;53.666;9.700;2023-07-08T15:31:13;30.00;40.58
64198;SHT31;50512;53.666;9.700;2023-07-08T15:33:42;30.07;41.78
64198;SHT31;50512;53.666;9.700;2023-07-08T15:36:09;30.13;41.10
64198;SHT31;50512;53.666;9.700;2023-07-08T15:38:36;30.03;43.26
64198;SHT31;50512;53.666;9.700;2023-07-08T15:41:02;29.92;42.01
64198;SHT31;50512;53.666;9.700;2023-07-08T15:43:30;29.76;42.92
64198;SHT31;50512;53.666;9.700;2023-07-08T15:45:56;29.65;43.17